Airfield :
LOGIN :

Register | Disclaimer

   EN    FR    IT 

 










Legend :    VFR   Marginal VFR   IFR   Intensive IFR   Very Intensive IFR
Visi :
Ceiling :
>= 8 km
>= 3000ft
5 to 8 km
1000 to 3000 ft
1500m to 5 km
500 to 1000 ft
800 to 1500m
200 to 500 ft
< 800m
< 200 ft
Symbols :   Thunderstorms  Fog  Heavy snow  Heavy precipitations  Wind > 20 kt
SIGMETs :     Misc.  Thunderstorms  Icing  Turbulence  Mountain Waves  Volcanic Ashes






- Airport Elevation : 78 ft
- IATA code : LKN


ENLK - Leknes

CURRENT METAR :
  • 190650Z 32009KT 290V350 9999 FEW006 SCT015 BKN070 13/12 Q1000

EXPIRED METARs :
  • 190550Z 32009KT 280V340 9999 -RA FEW006 SCT050 BKN080 13/12 Q1000
  • 190520Z 31011KT 9999 FEW007 SCT050 BKN090 13/12 Q0999
  • 190450Z 32009KT 9999 FEW007 SCT050 BKN090 14/11 Q1000
  • 190420Z 33006KT 9999 FEW015 SCT050 BKN090 14/11 Q1000
  • 190350Z 33006KT 9999 FEW010 SCT050 BKN090 14/12 Q1000
  • 190320Z 33006KT 9999 FEW010 SCT050 BKN090 13/12 Q1000
  • 190250Z 27004KT CAVOK 13/11 Q1000
  • 190220Z 30004KT CAVOK 12/10 Q1000 0

TAF N/A



MET'MAP, your aeronautical weather chart ! - Copyright ORBIFLY December 2007 - Disclaimer

ORBIFLY MET'MAP TEAM :

Programming & Development : Alexandra Zaïnal
Original concept : Baudouin d'Aumeries
Technical & hardware support : Manuel Goepfert
Assistance : Marc-Olivier Méhu




SOURCES & CREDITS :

   NOAA